sensor_id;sensor_type;location;lat;lon;timestamp;temperature;humidity
70986;DHT22;58645;43.068;25.610;2024-02-26T00:02:23;12.50;99.90
70986;DHT22;58645;43.068;25.610;2024-02-26T00:04:49;12.50;99.90
70986;DHT22;58645;43.068;25.610;2024-02-26T00:07:16;12.40;99.90
70986;DHT22;58645;43.068;25.610;2024-02-26T00:09:41;12.40;99.90
70986;DHT22;58645;43.068;25.610;2024-02-26T00:12:07;12.40;99.90
70986;DHT22;58645;43.068;25.610;2024-02-26T00:14:33;12.40;99.90
70986;DHT22;58645;43.068;25.610;2024-02-26T00:17:00;12.40;99.90
70986;DHT22;58645;43.068;25.610;2024-02-26T00:19:26;12.30;99.90
70986;DHT22;58645;43.068;25.610;2024-02-26T00:21:51;12.20;99.90
70986;DHT22;58645;43.068;25.610;2024-02-26T00:24:19;12.20;99.90
70986;DHT22;58645;43.068;25.610;2024-02-26T00:26:45;12.20;99.90
70986;DHT22;58645;43.068;25.610;2024-02-26T00:29:10;12.30;99.90
70986;DHT22;58645;43.068;25.610;2024-02-26T00:31:37;12.20;99.90
70986;DHT22;58645;43.068;25.610;2024-02-26T00:34:03;12.20;99.90
70986;DHT22;58645;43.068;25.610;2024-02-26T00:36:29;12.20;99.90
70986;DHT22;58645;43.068;25.610;2024-02-26T00:38:55;12.20;99.90
70986;DHT22;58645;43.068;25.610;2024-02-26T00:41:21;12.30;99.90
70986;DHT22;58645;43.068;25.610;2024-02-26T00:43:47;12.30;99.90
70986;DHT22;58645;43.068;25.610;2024-02-26T00:46:13;12.40;99.90
70986;DHT22;58645;43.068;25.610;2024-02-26T00:48:38;12.40;99.90
70986;DHT22;58645;43.068;25.610;2024-02-26T00:51:05;12.40;99.90
70986;DHT22;58645;43.068;25.610;2024-02-26T00:53:31;12.50;99.90
70986;DHT22;58645;43.068;25.610;2024-02-26T00:55:57;12.50;99.90
70986;DHT22;58645;43.068;25.610;2024-02-26T00:58:25;12.50;99.90
70986;DHT22;58645;43.068;25.610;2024-02-26T01:00:50;12.50;99.90
70986;DHT22;58645;43.068;25.610;2024-02-26T01:03:17;12.50;99.90
70986;DHT22;58645;43.068;25.610;2024-02-26T01:05:43;12.50;99.90
70986;DHT22;58645;43.068;25.610;2024-02-26T01:08:09;12.50;99.90
70986;DHT22;58645;43.068;25.610;2024-02-26T01:10:34;12.50;99.90
70986;DHT22;58645;43.068;25.610;2024-02-26T01:13:01;12.50;99.90
70986;DHT22;58645;43.068;25.610;2024-02-26T01:15:27;12.50;99.90
70986;DHT22;58645;43.068;25.610;2024-02-26T01:17:53;12.50;99.90
70986;DHT22;58645;43.068;25.610;2024-02-26T01:20:18;12.50;99.90
70986;DHT22;58645;43.068;25.610;2024-02-26T01:22:44;12.60;99.90
70986;DHT22;58645;43.068;25.610;2024-02-26T01:25:10;12.60;99.90
70986;DHT22;58645;43.068;25.610;2024-02-26T01:27:36;12.70;99.90
70986;DHT22;58645;43.068;25.610;2024-02-26T01:30:06;12.70;99.90
70986;DHT22;58645;43.068;25.610;2024-02-26T01:32:32;12.80;99.90
70986;DHT22;58645;43.068;25.610;2024-02-26T01:34:58;12.90;99.90
70986;DHT22;58645;43.068;25.610;2024-02-26T01:37:23;12.90;99.90
70986;DHT22;58645;43.068;25.610;2024-02-26T01:39:49;12.90;99.90
70986;DHT22;58645;43.068;25.610;2024-02-26T01:42:15;13.00;99.90
70986;DHT22;58645;43.068;25.610;2024-02-26T01:44:41;13.00;99.90
70986;DHT22;58645;43.068;25.610;2024-02-26T01:47:10;13.00;99.90
70986;DHT22;58645;43.068;25.610;2024-02-26T01:49:37;13.00;99.90
70986;DHT22;58645;43.068;25.610;2024-02-26T01:52:04;13.00;99.90
70986;DHT22;58645;43.068;25.610;2024-02-26T01:54:31;13.00;99.90
70986;DHT22;58645;43.068;25.610;2024-02-26T01:56:57;13.00;99.90
70986;DHT22;58645;43.068;25.610;2024-02-26T01:59:23;12.90;99.90
70986;DHT22;58645;43.068;25.610;2024-02-26T02:01:54;12.90;99.90
70986;DHT22;58645;43.068;25.610;2024-02-26T02:04:22;12.90;99.90
70986;DHT22;58645;43.068;25.610;2024-02-26T02:06:49;12.80;99.90
70986;DHT22;58645;43.068;25.610;2024-02-26T02:09:15;12.70;99.90
70986;DHT22;58645;43.068;25.610;2024-02-26T02:11:41;12.70;99.90
70986;DHT22;58645;43.068;25.610;2024-02-26T02:14:07;12.60;99.90
70986;DHT22;58645;43.068;25.610;2024-02-26T02:16:33;12.50;99.90
70986;DHT22;58645;43.068;25.610;2024-02-26T02:18:59;12.40;99.90
70986;DHT22;58645;43.068;25.610;2024-02-26T02:21:25;12.40;99.90
70986;DHT22;58645;43.068;25.610;2024-02-26T02:23:50;12.30;99.90
70986;DHT22;58645;43.068;25.610;2024-02-26T02:26:16;12.20;99.90
70986;DHT22;58645;43.068;25.610;2024-02-26T02:28:43;12.20;99.90
70986;DHT22;58645;43.068;25.610;2024-02-26T02:31:09;12.10;99.90
70986;DHT22;58645;43.068;25.610;2024-02-26T02:33:36;12.10;99.90
70986;DHT22;58645;43.068;25.610;2024-02-26T02:36:02;12.10;99.90
70986;DHT22;58645;43.068;25.610;2024-02-26T02:38:28;12.20;99.90
70986;DHT22;58645;43.068;25.610;2024-02-26T02:40:56;12.20;99.90
70986;DHT22;58645;43.068;25.610;2024-02-26T02:43:21;12.30;99.90
70986;DHT22;58645;43.068;25.610;2024-02-26T02:45:47;12.30;99.90
70986;DHT22;58645;43.068;25.610;2024-02-26T02:48:13;12.40;99.90
70986;DHT22;58645;43.068;25.610;2024-02-26T02:50:39;12.40;99.90
70986;DHT22;58645;43.068;25.610;2024-02-26T02:53:04;12.50;99.90
70986;DHT22;58645;43.068;25.610;2024-02-26T02:55:30;12.50;99.90
70986;DHT22;58645;43.068;25.610;2024-02-26T02:57:56;12.50;99.90
70986;DHT22;58645;43.068;25.610;2024-02-26T03:00:22;12.50;99.90
70986;DHT22;58645;43.068;25.610;2024-02-26T03:02:50;12.50;99.90
70986;DHT22;58645;43.068;25.610;2024-02-26T03:05:16;12.50;99.90
70986;DHT22;58645;43.068;25.610;2024-02-26T03:07:42;12.60;99.90
70986;DHT22;58645;43.068;25.610;2024-02-26T03:10:08;12.50;99.90
70986;DHT22;58645;43.068;25.610;2024-02-26T03:12:34;12.50;99.90
70986;DHT22;58645;43.068;25.610;2024-02-26T03:15:00;12.50;99.90
70986;DHT22;58645;43.068;25.610;2024-02-26T03:17:29;12.60;99.90
70986;DHT22;58645;43.068;25.610;2024-02-26T03:19:55;12.50;99.90
70986;DHT22;58645;43.068;25.610;2024-02-26T03:22:21;12.60;99.90
70986;DHT22;58645;43.068;25.610;2024-02-26T03:24:47;12.60;99.90
70986;DHT22;58645;43.068;25.610;2024-02-26T03:27:13;12.60;99.90
70986;DHT22;58645;43.068;25.610;2024-02-26T03:29:40;12.60;99.90
70986;DHT22;58645;43.068;25.610;2024-02-26T03:32:06;12.60;99.90
70986;DHT22;58645;43.068;25.610;2024-02-26T03:34:33;12.50;99.90
70986;DHT22;58645;43.068;25.610;2024-02-26T03:37:01;12.50;99.90
70986;DHT22;58645;43.068;25.610;2024-02-26T03:39:27;12.40;99.90
70986;DHT22;58645;43.068;25.610;2024-02-26T03:41:52;12.40;99.90
70986;DHT22;58645;43.068;25.610;2024-02-26T03:44:19;12.50;99.90
70986;DHT22;58645;43.068;25.610;2024-02-26T03:46:45;12.70;99.90
70986;DHT22;58645;43.068;25.610;2024-02-26T03:49:11;12.80;99.90
70986;DHT22;58645;43.068;25.610;2024-02-26T03:51:37;13.00;99.90
70986;DHT22;58645;43.068;25.610;2024-02-26T03:54:03;13.10;99.90
70986;DHT22;58645;43.068;25.610;2024-02-26T03:56:29;13.20;99.90
70986;DHT22;58645;43.068;25.610;2024-02-26T03:58:54;13.20;99.90
70986;DHT22;58645;43.068;25.610;2024-02-26T04:01:20;13.20;99.90
70986;DHT22;58645;43.068;25.610;2024-02-26T04:03:46;13.30;99.90
70986;DHT22;58645;43.068;25.610;2024-02-26T04:06:12;13.30;99.90
70986;DHT22;58645;43.068;25.610;2024-02-26T04:08:43;13.30;99.90
70986;DHT22;58645;43.068;25.610;2024-02-26T04:11:09;13.30;99.90
70986;DHT22;58645;43.068;25.610;2024-02-26T04:13:35;13.30;99.90
70986;DHT22;58645;43.068;25.610;2024-02-26T04:16:04;13.40;99.90
70986;DHT22;58645;43.068;25.610;2024-02-26T04:18:31;13.40;99.90
70986;DHT22;58645;43.068;25.610;2024-02-26T04:20:57;13.40;99.90
70986;DHT22;58645;43.068;25.610;2024-02-26T04:23:23;13.40;99.90
70986;DHT22;58645;43.068;25.610;2024-02-26T04:25:49;13.40;99.90
70986;DHT22;58645;43.068;25.610;2024-02-26T04:28:15;13.40;99.90
70986;DHT22;58645;43.068;25.610;2024-02-26T04:30:41;13.50;99.90
70986;DHT22;58645;43.068;25.610;2024-02-26T04:33:07;13.40;99.90
70986;DHT22;58645;43.068;25.610;2024-02-26T04:35:32;13.50;99.90
70986;DHT22;58645;43.068;25.610;2024-02-26T04:38:00;13.40;99.90
70986;DHT22;58645;43.068;25.610;2024-02-26T04:40:26;13.50;99.90
70986;DHT22;58645;43.068;25.610;2024-02-26T04:42:54;13.50;99.90
70986;DHT22;58645;43.068;25.610;2024-02-26T04:45:20;13.50;99.90
70986;DHT22;58645;43.068;25.610;2024-02-26T04:47:46;13.60;98.10
70986;DHT22;58645;43.068;25.610;2024-02-26T04:50:17;13.60;99.10
70986;DHT22;58645;43.068;25.610;2024-02-26T04:52:43;13.60;99.30
70986;DHT22;58645;43.068;25.610;2024-02-26T04:55:08;13.70;99.40
70986;DHT22;58645;43.068;25.610;2024-02-26T04:57:34;13.60;99.10
70986;DHT22;58645;43.068;25.610;2024-02-26T05:00:00;13.60;98.70
70986;DHT22;58645;43.068;25.610;2024-02-26T05:02:25;13.60;99.20
70986;DHT22;58645;43.068;25.610;2024-02-26T05:04:51;13.60;98.40
70986;DHT22;58645;43.068;25.610;2024-02-26T05:07:17;13.60;99.90
70986;DHT22;58645;43.068;25.610;2024-02-26T05:09:43;13.60;98.70
70986;DHT22;58645;43.068;25.610;2024-02-26T05:12:09;13.60;99.70
70986;DHT22;58645;43.068;25.610;2024-02-26T05:14:35;13.60;98.00
70986;DHT22;58645;43.068;25.610;2024-02-26T05:17:01;13.60;97.50
70986;DHT22;58645;43.068;25.610;2024-02-26T05:19:27;13.60;99.70
70986;DHT22;58645;43.068;25.610;2024-02-26T05:21:52;13.60;98.50
70986;DHT22;58645;43.068;25.610;2024-02-26T05:24:18;13.60;99.50
70986;DHT22;58645;43.068;25.610;2024-02-26T05:26:47;13.70;99.90
70986;DHT22;58645;43.068;25.610;2024-02-26T05:29:13;13.70;99.90
70986;DHT22;58645;43.068;25.610;2024-02-26T05:31:39;13.60;99.90
70986;DHT22;58645;43.068;25.610;2024-02-26T05:34:07;13.60;99.70
70986;DHT22;58645;43.068;25.610;2024-02-26T05:36:33;13.60;99.90
70986;DHT22;58645;43.068;25.610;2024-02-26T05:39:00;13.50;99.90
70986;DHT22;58645;43.068;25.610;2024-02-26T05:41:26;13.70;99.90
70986;DHT22;58645;43.068;25.610;2024-02-26T05:43:55;13.70;99.90
70986;DHT22;58645;43.068;25.610;2024-02-26T05:46:26;13.70;99.90
70986;DHT22;58645;43.068;25.610;2024-02-26T05:48:53;13.70;99.90
70986;DHT22;58645;43.068;25.610;2024-02-26T05:51:19;13.70;99.90
70986;DHT22;58645;43.068;25.610;2024-02-26T05:53:45;13.70;99.90
70986;DHT22;58645;43.068;25.610;2024-02-26T05:56:23;13.70;99.90
70986;DHT22;58645;43.068;25.610;2024-02-26T05:58:50;13.70;99.90
70986;DHT22;58645;43.068;25.610;2024-02-26T06:01:22;13.80;99.90
70986;DHT22;58645;43.068;25.610;2024-02-26T06:03:48;13.80;99.90
70986;DHT22;58645;43.068;25.610;2024-02-26T06:06:14;13.90;99.80
70986;DHT22;58645;43.068;25.610;2024-02-26T06:08:43;13.90;99.90
70986;DHT22;58645;43.068;25.610;2024-02-26T06:11:09;13.90;98.40
70986;DHT22;58645;43.068;25.610;2024-02-26T06:13:35;14.00;96.20
70986;DHT22;58645;43.068;25.610;2024-02-26T06:16:01;14.10;95.40
70986;DHT22;58645;43.068;25.610;2024-02-26T06:18:28;14.20;93.60
70986;DHT22;58645;43.068;25.610;2024-02-26T06:20:54;14.30;92.40
70986;DHT22;58645;43.068;25.610;2024-02-26T06:23:20;14.40;92.00
70986;DHT22;58645;43.068;25.610;2024-02-26T06:25:45;14.40;89.40
70986;DHT22;58645;43.068;25.610;2024-02-26T06:28:13;14.60;91.20
70986;DHT22;58645;43.068;25.610;2024-02-26T06:30:40;14.60;90.40
70986;DHT22;58645;43.068;25.610;2024-02-26T06:33:06;14.70;88.10
70986;DHT22;58645;43.068;25.610;2024-02-26T06:35:32;14.80;88.60
70986;DHT22;58645;43.068;25.610;2024-02-26T06:37:58;14.90;88.70
70986;DHT22;58645;43.068;25.610;2024-02-26T06:40:24;14.90;88.70
70986;DHT22;58645;43.068;25.610;2024-02-26T06:42:51;14.90;87.60
70986;DHT22;58645;43.068;25.610;2024-02-26T06:45:28;14.90;86.40
70986;DHT22;58645;43.068;25.610;2024-02-26T06:47:55;15.00;85.80
70986;DHT22;58645;43.068;25.610;2024-02-26T06:50:24;15.00;86.60
70986;DHT22;58645;43.068;25.610;2024-02-26T06:52:50;15.10;85.00
70986;DHT22;58645;43.068;25.610;2024-02-26T06:55:16;15.10;86.00
70986;DHT22;58645;43.068;25.610;2024-02-26T06:57:42;15.20;86.00
70986;DHT22;58645;43.068;25.610;2024-02-26T07:00:08;15.20;84.80
70986;DHT22;58645;43.068;25.610;2024-02-26T07:02:41;15.20;83.50
70986;DHT22;58645;43.068;25.610;2024-02-26T07:05:07;15.30;82.70
70986;DHT22;58645;43.068;25.610;2024-02-26T07:07:33;15.40;82.80
70986;DHT22;58645;43.068;25.610;2024-02-26T07:10:01;15.50;81.50
70986;DHT22;58645;43.068;25.610;2024-02-26T07:12:30;15.60;80.50
70986;DHT22;58645;43.068;25.610;2024-02-26T07:14:56;15.70;78.50
70986;DHT22;58645;43.068;25.610;2024-02-26T07:17:21;15.80;78.30
70986;DHT22;58645;43.068;25.610;2024-02-26T07:19:48;15.90;81.60
70986;DHT22;58645;43.068;25.610;2024-02-26T07:22:14;16.00;81.60
70986;DHT22;58645;43.068;25.610;2024-02-26T07:24:43;16.10;81.20
70986;DHT22;58645;43.068;25.610;2024-02-26T07:27:09;16.10;81.20
70986;DHT22;58645;43.068;25.610;2024-02-26T07:29:38;16.30;82.40
70986;DHT22;58645;43.068;25.610;2024-02-26T07:32:14;16.60;79.20
70986;DHT22;58645;43.068;25.610;2024-02-26T07:34:41;16.70;78.80
70986;DHT22;58645;43.068;25.610;2024-02-26T07:37:32;16.90;77.00
70986;DHT22;58645;43.068;25.610;2024-02-26T07:40:00;17.00;75.00
70986;DHT22;58645;43.068;25.610;2024-02-26T07:42:27;17.10;76.10
70986;DHT22;58645;43.068;25.610;2024-02-26T07:45:17;17.30;73.30
70986;DHT22;58645;43.068;25.610;2024-02-26T07:47:46;17.40;73.50
70986;DHT22;58645;43.068;25.610;2024-02-26T07:50:36;17.50;73.50
70986;DHT22;58645;43.068;25.610;2024-02-26T07:56:40;18.00;70.00
70986;DHT22;58645;43.068;25.610;2024-02-26T07:59:18;18.00;69.40
70986;DHT22;58645;43.068;25.610;2024-02-26T08:01:50;18.50;68.80
70986;DHT22;58645;43.068;25.610;2024-02-26T08:04:17;18.70;64.70
70986;DHT22;58645;43.068;25.610;2024-02-26T08:06:42;19.00;63.80
70986;DHT22;58645;43.068;25.610;2024-02-26T08:09:09;19.60;63.40
70986;DHT22;58645;43.068;25.610;2024-02-26T08:11:38;20.40;57.60
70986;DHT22;58645;43.068;25.610;2024-02-26T08:14:05;21.50;53.30
70986;DHT22;58645;43.068;25.610;2024-02-26T08:16:30;22.80;49.40
70986;DHT22;58645;43.068;25.610;2024-02-26T08:18:56;23.90;48.30
70986;DHT22;58645;43.068;25.610;2024-02-26T08:21:22;24.50;45.10
70986;DHT22;58645;43.068;25.610;2024-02-26T08:23:50;25.50;42.80
70986;DHT22;58645;43.068;25.610;2024-02-26T08:26:18;25.80;39.40
70986;DHT22;58645;43.068;25.610;2024-02-26T08:28:46;26.10;39.80
70986;DHT22;58645;43.068;25.610;2024-02-26T08:31:13;26.30;38.10
70986;DHT22;58645;43.068;25.610;2024-02-26T08:33:39;26.60;37.50
70986;DHT22;58645;43.068;25.610;2024-02-26T08:36:05;26.70;34.90
70986;DHT22;58645;43.068;25.610;2024-02-26T08:38:31;26.90;36.20
70986;DHT22;58645;43.068;25.610;2024-02-26T08:41:00;26.70;35.30
70986;DHT22;58645;43.068;25.610;2024-02-26T08:43:27;26.50;34.40
70986;DHT22;58645;43.068;25.610;2024-02-26T08:45:52;26.60;33.90
70986;DHT22;58645;43.068;25.610;2024-02-26T08:48:18;26.80;33.30
70986;DHT22;58645;43.068;25.610;2024-02-26T08:50:44;26.60;33.90
70986;DHT22;58645;43.068;25.610;2024-02-26T08:53:12;26.00;33.10
70986;DHT22;58645;43.068;25.610;2024-02-26T08:55:49;25.80;33.70
70986;DHT22;58645;43.068;25.610;2024-02-26T08:58:23;25.60;33.90
70986;DHT22;58645;43.068;25.610;2024-02-26T09:00:52;25.40;34.00
70986;DHT22;58645;43.068;25.610;2024-02-26T09:03:18;26.10;33.20
70986;DHT22;58645;43.068;25.610;2024-02-26T09:05:44;25.70;33.10
70986;DHT22;58645;43.068;25.610;2024-02-26T09:08:12;25.80;32.30
70986;DHT22;58645;43.068;25.610;2024-02-26T09:10:39;26.10;32.60
70986;DHT22;58645;43.068;25.610;2024-02-26T09:13:05;25.90;32.20
70986;DHT22;58645;43.068;25.610;2024-02-26T09:15:31;25.30;34.00
70986;DHT22;58645;43.068;25.610;2024-02-26T09:17:57;25.10;35.00
70986;DHT22;58645;43.068;25.610;2024-02-26T09:20:23;24.80;35.60
70986;DHT22;58645;43.068;25.610;2024-02-26T09:22:54;24.50;36.50
70986;DHT22;58645;43.068;25.610;2024-02-26T09:25:20;24.50;37.10
70986;DHT22;58645;43.068;25.610;2024-02-26T09:27:46;25.00;36.00
70986;DHT22;58645;43.068;25.610;2024-02-26T09:30:13;24.90;35.60
70986;DHT22;58645;43.068;25.610;2024-02-26T09:32:40;24.60;37.30
70986;DHT22;58645;43.068;25.610;2024-02-26T09:35:09;24.30;37.10
70986;DHT22;58645;43.068;25.610;2024-02-26T09:37:41;24.00;37.00
70986;DHT22;58645;43.068;25.610;2024-02-26T09:40:12;23.60;37.50
70986;DHT22;58645;43.068;25.610;2024-02-26T09:42:43;23.50;37.90
70986;DHT22;58645;43.068;25.610;2024-02-26T09:45:23;23.00;39.80
70986;DHT22;58645;43.068;25.610;2024-02-26T09:47:50;24.00;39.20
70986;DHT22;58645;43.068;25.610;2024-02-26T09:50:16;25.20;36.90
70986;DHT22;58645;43.068;25.610;2024-02-26T09:52:45;26.00;35.60
70986;DHT22;58645;43.068;25.610;2024-02-26T09:55:20;26.50;33.10
70986;DHT22;58645;43.068;25.610;2024-02-26T09:57:46;27.10;33.80
70986;DHT22;58645;43.068;25.610;2024-02-26T10:00:22;27.90;32.00
70986;DHT22;58645;43.068;25.610;2024-02-26T10:02:48;27.70;30.50
70986;DHT22;58645;43.068;25.610;2024-02-26T10:05:18;27.60;29.80
70986;DHT22;58645;43.068;25.610;2024-02-26T10:07:48;28.20;30.40
70986;DHT22;58645;43.068;25.610;2024-02-26T10:10:14;28.60;28.70
70986;DHT22;58645;43.068;25.610;2024-02-26T10:12:40;28.80;26.20
70986;DHT22;58645;43.068;25.610;2024-02-26T10:15:09;28.50;27.70
70986;DHT22;58645;43.068;25.610;2024-02-26T10:17:38;28.10;27.70
70986;DHT22;58645;43.068;25.610;2024-02-26T10:20:21;28.20;27.60
70986;DHT22;58645;43.068;25.610;2024-02-26T10:23:03;28.00;24.90
70986;DHT22;58645;43.068;25.610;2024-02-26T10:25:31;28.60;24.90
70986;DHT22;58645;43.068;25.610;2024-02-26T10:28:00;28.60;24.40
70986;DHT22;58645;43.068;25.610;2024-02-26T10:30:28;28.20;25.20
70986;DHT22;58645;43.068;25.610;2024-02-26T10:32:56;28.90;24.30
70986;DHT22;58645;43.068;25.610;2024-02-26T10:35:23;29.10;23.60
70986;DHT22;58645;43.068;25.610;2024-02-26T10:37:50;28.70;23.10
70986;DHT22;58645;43.068;25.610;2024-02-26T10:40:17;29.00;22.80
70986;DHT22;58645;43.068;25.610;2024-02-26T10:42:43;28.30;23.60
70986;DHT22;58645;43.068;25.610;2024-02-26T10:45:11;29.00;23.70
70986;DHT22;58645;43.068;25.610;2024-02-26T10:47:36;29.60;23.30
70986;DHT22;58645;43.068;25.610;2024-02-26T10:50:04;29.70;22.30
70986;DHT22;58645;43.068;25.610;2024-02-26T10:52:42;29.90;21.60
70986;DHT22;58645;43.068;25.610;2024-02-26T10:55:18;30.30;21.20
70986;DHT22;58645;43.068;25.610;2024-02-26T10:57:57;29.70;21.50
70986;DHT22;58645;43.068;25.610;2024-02-26T11:00:23;29.40;22.00
70986;DHT22;58645;43.068;25.610;2024-02-26T11:02:50;28.50;23.40
70986;DHT22;58645;43.068;25.610;2024-02-26T11:05:17;28.20;22.80
70986;DHT22;58645;43.068;25.610;2024-02-26T11:08:00;28.10;21.80
70986;DHT22;58645;43.068;25.610;2024-02-26T11:10:37;27.90;21.20
70986;DHT22;58645;43.068;25.610;2024-02-26T11:13:05;28.00;22.10
70986;DHT22;58645;43.068;25.610;2024-02-26T11:15:32;28.40;21.70
70986;DHT22;58645;43.068;25.610;2024-02-26T11:18:00;28.10;21.80
70986;DHT22;58645;43.068;25.610;2024-02-26T11:20:28;27.80;21.30
70986;DHT22;58645;43.068;25.610;2024-02-26T11:22:56;28.00;21.80
70986;DHT22;58645;43.068;25.610;2024-02-26T11:25:22;28.40;21.80
70986;DHT22;58645;43.068;25.610;2024-02-26T11:27:55;28.60;21.70
70986;DHT22;58645;43.068;25.610;2024-02-26T11:30:25;28.70;22.10
70986;DHT22;58645;43.068;25.610;2024-02-26T11:32:52;28.40;22.30
70986;DHT22;58645;43.068;25.610;2024-02-26T11:35:19;28.60;21.70
70986;DHT22;58645;43.068;25.610;2024-02-26T11:40:19;28.20;22.50
70986;DHT22;58645;43.068;25.610;2024-02-26T11:42:45;27.60;22.50
70986;DHT22;58645;43.068;25.610;2024-02-26T11:48:14;27.30;23.50
70986;DHT22;58645;43.068;25.610;2024-02-26T11:50:42;27.30;23.60
70986;DHT22;58645;43.068;25.610;2024-02-26T11:56:24;27.60;24.10
70986;DHT22;58645;43.068;25.610;2024-02-26T11:59:00;27.90;22.20
70986;DHT22;58645;43.068;25.610;2024-02-26T12:01:39;27.40;22.70
70986;DHT22;58645;43.068;25.610;2024-02-26T12:04:21;27.30;22.90
70986;DHT22;58645;43.068;25.610;2024-02-26T12:06:56;27.00;24.00
70986;DHT22;58645;43.068;25.610;2024-02-26T12:09:35;26.90;22.90
70986;DHT22;58645;43.068;25.610;2024-02-26T12:12:03;26.90;23.00
70986;DHT22;58645;43.068;25.610;2024-02-26T12:14:29;26.90;22.90
70986;DHT22;58645;43.068;25.610;2024-02-26T12:16:57;26.90;23.00
70986;DHT22;58645;43.068;25.610;2024-02-26T12:19:24;27.00;22.90
70986;DHT22;58645;43.068;25.610;2024-02-26T12:21:53;26.60;22.70
70986;DHT22;58645;43.068;25.610;2024-02-26T12:24:22;26.70;22.30
70986;DHT22;58645;43.068;25.610;2024-02-26T12:26:48;26.10;23.80
70986;DHT22;58645;43.068;25.610;2024-02-26T12:29:14;25.70;24.40
70986;DHT22;58645;43.068;25.610;2024-02-26T12:31:40;25.40;25.10
70986;DHT22;58645;43.068;25.610;2024-02-26T12:34:07;25.10;25.70
70986;DHT22;58645;43.068;25.610;2024-02-26T12:36:34;24.90;25.20
70986;DHT22;58645;43.068;25.610;2024-02-26T12:39:01;24.50;26.00
70986;DHT22;58645;43.068;25.610;2024-02-26T12:41:28;24.00;26.50
70986;DHT22;58645;43.068;25.610;2024-02-26T12:43:56;23.50;27.20
70986;DHT22;58645;43.068;25.610;2024-02-26T12:46:22;23.40;27.60
70986;DHT22;58645;43.068;25.610;2024-02-26T12:48:48;23.20;28.00
70986;DHT22;58645;43.068;25.610;2024-02-26T12:51:15;23.00;28.00
70986;DHT22;58645;43.068;25.610;2024-02-26T12:53:41;22.70;28.50
70986;DHT22;58645;43.068;25.610;2024-02-26T12:56:09;22.30;29.20
70986;DHT22;58645;43.068;25.610;2024-02-26T12:58:36;22.10;29.20
70986;DHT22;58645;43.068;25.610;2024-02-26T13:01:04;21.90;29.60
70986;DHT22;58645;43.068;25.610;2024-02-26T13:03:30;21.70;30.20
70986;DHT22;58645;43.068;25.610;2024-02-26T13:05:57;21.60;30.50
70986;DHT22;58645;43.068;25.610;2024-02-26T13:08:23;21.60;30.40
70986;DHT22;58645;43.068;25.610;2024-02-26T13:10:49;21.60;30.60
70986;DHT22;58645;43.068;25.610;2024-02-26T13:13:17;21.60;30.60
70986;DHT22;58645;43.068;25.610;2024-02-26T13:15:46;21.50;30.50
70986;DHT22;58645;43.068;25.610;2024-02-26T13:18:13;21.30;30.70
70986;DHT22;58645;43.068;25.610;2024-02-26T13:20:40;21.20;30.70
70986;DHT22;58645;43.068;25.610;2024-02-26T13:23:07;21.10;31.50
70986;DHT22;58645;43.068;25.610;2024-02-26T13:25:34;21.10;31.60
70986;DHT22;58645;43.068;25.610;2024-02-26T13:28:16;21.00;32.00
70986;DHT22;58645;43.068;25.610;2024-02-26T13:30:56;20.80;32.20
70986;DHT22;58645;43.068;25.610;2024-02-26T13:33:24;20.70;32.50
70986;DHT22;58645;43.068;25.610;2024-02-26T13:35:50;20.00;32.00
70986;DHT22;58645;43.068;25.610;2024-02-26T13:38:16;20.70;32.40
70986;DHT22;58645;43.068;25.610;2024-02-26T13:40:41;20.70;32.10
70986;DHT22;58645;43.068;25.610;2024-02-26T13:43:07;20.70;32.10
70986;DHT22;58645;43.068;25.610;2024-02-26T13:45:35;20.70;32.50
70986;DHT22;58645;43.068;25.610;2024-02-26T13:48:05;20.70;32.30
70986;DHT22;58645;43.068;25.610;2024-02-26T13:50:32;20.60;33.00
70986;DHT22;58645;43.068;25.610;2024-02-26T13:52:57;20.50;33.00
70986;DHT22;58645;43.068;25.610;2024-02-26T13:55:26;20.50;33.20
70986;DHT22;58645;43.068;25.610;2024-02-26T13:58:00;20.50;33.60
70986;DHT22;58645;43.068;25.610;2024-02-26T14:00:29;20.30;33.70
70986;DHT22;58645;43.068;25.610;2024-02-26T14:02:59;20.20;33.90
70986;DHT22;58645;43.068;25.610;2024-02-26T14:05:25;20.00;34.40
70986;DHT22;58645;43.068;25.610;2024-02-26T14:07:51;20.00;35.00
70986;DHT22;58645;43.068;25.610;2024-02-26T14:10:17;19.90;36.30
70986;DHT22;58645;43.068;25.610;2024-02-26T14:12:43;19.80;36.70
70986;DHT22;58645;43.068;25.610;2024-02-26T14:15:10;19.80;36.90
70986;DHT22;58645;43.068;25.610;2024-02-26T14:17:36;19.70;37.30
70986;DHT22;58645;43.068;25.610;2024-02-26T14:20:02;19.70;37.70
70986;DHT22;58645;43.068;25.610;2024-02-26T14:22:28;19.50;37.60
70986;DHT22;58645;43.068;25.610;2024-02-26T14:24:56;19.50;38.20
70986;DHT22;58645;43.068;25.610;2024-02-26T14:27:22;19.30;38.20
70986;DHT22;58645;43.068;25.610;2024-02-26T14:29:49;19.20;38.10
70986;DHT22;58645;43.068;25.610;2024-02-26T14:32:15;19.10;38.60
70986;DHT22;58645;43.068;25.610;2024-02-26T14:34:41;19.00;39.00
70986;DHT22;58645;43.068;25.610;2024-02-26T14:37:06;19.00;39.40
70986;DHT22;58645;43.068;25.610;2024-02-26T14:39:33;19.00;39.50
70986;DHT22;58645;43.068;25.610;2024-02-26T14:41:59;18.90;39.80
70986;DHT22;58645;43.068;25.610;2024-02-26T14:44:25;18.80;39.90
70986;DHT22;58645;43.068;25.610;2024-02-26T14:46:51;18.80;40.30
70986;DHT22;58645;43.068;25.610;2024-02-26T14:49:17;18.70;40.50
70986;DHT22;58645;43.068;25.610;2024-02-26T14:51:44;18.60;40.70
70986;DHT22;58645;43.068;25.610;2024-02-26T14:54:14;18.50;41.10
70986;DHT22;58645;43.068;25.610;2024-02-26T14:56:40;18.40;41.50
70986;DHT22;58645;43.068;25.610;2024-02-26T14:59:06;18.40;41.60
70986;DHT22;58645;43.068;25.610;2024-02-26T15:01:32;18.30;41.70
70986;DHT22;58645;43.068;25.610;2024-02-26T15:03:58;18.30;42.10
70986;DHT22;58645;43.068;25.610;2024-02-26T15:06:24;18.20;42.10
70986;DHT22;58645;43.068;25.610;2024-02-26T15:08:51;18.20;42.40
70986;DHT22;58645;43.068;25.610;2024-02-26T15:11:16;18.10;42.60
70986;DHT22;58645;43.068;25.610;2024-02-26T15:13:42;18.10;42.80
70986;DHT22;58645;43.068;25.610;2024-02-26T15:16:08;18.10;43.20
70986;DHT22;58645;43.068;25.610;2024-02-26T15:18:36;18.00;43.40
70986;DHT22;58645;43.068;25.610;2024-02-26T15:21:03;17.90;43.80
70986;DHT22;58645;43.068;25.610;2024-02-26T15:23:29;17.90;43.90
70986;DHT22;58645;43.068;25.610;2024-02-26T15:25:55;17.90;44.00
70986;DHT22;58645;43.068;25.610;2024-02-26T15:28:20;17.80;44.00
70986;DHT22;58645;43.068;25.610;2024-02-26T15:30:46;17.80;43.90